sensor_id;sensor_type;location;lat;lon;timestamp;temperature;humidity
5118;DHT22;2578;51.622;7.046;2022-11-15T00:00:27;9.80;99.90
5118;DHT22;2578;51.622;7.046;2022-11-15T00:02:53;9.80;99.90
5118;DHT22;2578;51.622;7.046;2022-11-15T00:05:19;9.90;99.90
5118;DHT22;2578;51.622;7.046;2022-11-15T00:07:45;9.90;99.90
5118;DHT22;2578;51.622;7.046;2022-11-15T00:10:11;9.80;99.90
5118;DHT22;2578;51.622;7.046;2022-11-15T00:12:37;9.80;99.90
5118;DHT22;2578;51.622;7.046;2022-11-15T00:15:03;9.80;99.90
5118;DHT22;2578;51.622;7.046;2022-11-15T00:17:29;9.80;99.90
5118;DHT22;2578;51.622;7.046;2022-11-15T00:19:55;9.80;99.90
5118;DHT22;2578;51.622;7.046;2022-11-15T00:22:21;9.90;99.90
5118;DHT22;2578;51.622;7.046;2022-11-15T00:24:46;9.90;99.90
5118;DHT22;2578;51.622;7.046;2022-11-15T00:27:12;10.00;99.90
5118;DHT22;2578;51.622;7.046;2022-11-15T00:29:37;10.00;99.90
5118;DHT22;2578;51.622;7.046;2022-11-15T00:32:04;10.10;99.90
5118;DHT22;2578;51.622;7.046;2022-11-15T00:34:30;10.20;99.90
5118;DHT22;2578;51.622;7.046;2022-11-15T00:36:55;10.30;99.90
5118;DHT22;2578;51.622;7.046;2022-11-15T00:39:21;10.30;99.90
5118;DHT22;2578;51.622;7.046;2022-11-15T00:41:47;10.40;99.90
5118;DHT22;2578;51.622;7.046;2022-11-15T00:44:12;10.40;99.90
5118;DHT22;2578;51.622;7.046;2022-11-15T00:46:38;10.40;99.90
5118;DHT22;2578;51.622;7.046;2022-11-15T00:49:03;10.70;99.90
5118;DHT22;2578;51.622;7.046;2022-11-15T00:51:29;10.60;99.90
5118;DHT22;2578;51.622;7.046;2022-11-15T00:53:55;10.60;99.90
5118;DHT22;2578;51.622;7.046;2022-11-15T00:56:20;10.60;99.90
5118;DHT22;2578;51.622;7.046;2022-11-15T00:58:46;10.70;99.90
5118;DHT22;2578;51.622;7.046;2022-11-15T01:01:13;10.80;99.90
5118;DHT22;2578;51.622;7.046;2022-11-15T01:03:40;10.80;99.90
5118;DHT22;2578;51.622;7.046;2022-11-15T01:06:07;10.80;99.90
5118;DHT22;2578;51.622;7.046;2022-11-15T01:08:33;10.80;99.90
5118;DHT22;2578;51.622;7.046;2022-11-15T01:11:04;10.90;99.90
5118;DHT22;2578;51.622;7.046;2022-11-15T01:13:32;10.90;99.90
5118;DHT22;2578;51.622;7.046;2022-11-15T01:15:57;11.00;99.90
5118;DHT22;2578;51.622;7.046;2022-11-15T01:18:23;11.00;99.90
5118;DHT22;2578;51.622;7.046;2022-11-15T01:20:48;11.00;99.90
5118;DHT22;2578;51.622;7.046;2022-11-15T01:23:14;11.10;99.90
5118;DHT22;2578;51.622;7.046;2022-11-15T01:25:40;11.10;99.90
5118;DHT22;2578;51.622;7.046;2022-11-15T01:28:05;11.20;99.90
5118;DHT22;2578;51.622;7.046;2022-11-15T01:30:31;11.20;99.90
5118;DHT22;2578;51.622;7.046;2022-11-15T01:32:57;11.20;99.90
5118;DHT22;2578;51.622;7.046;2022-11-15T01:35:22;11.20;99.90
5118;DHT22;2578;51.622;7.046;2022-11-15T01:37:48;11.30;99.90
5118;DHT22;2578;51.622;7.046;2022-11-15T01:40:14;11.30;99.90
5118;DHT22;2578;51.622;7.046;2022-11-15T01:42:39;11.30;99.90
5118;DHT22;2578;51.622;7.046;2022-11-15T01:45:05;11.30;99.90
5118;DHT22;2578;51.622;7.046;2022-11-15T01:47:35;11.40;99.90
5118;DHT22;2578;51.622;7.046;2022-11-15T01:50:05;11.40;99.90
5118;DHT22;2578;51.622;7.046;2022-11-15T01:52:33;11.40;99.90
5118;DHT22;2578;51.622;7.046;2022-11-15T01:57:31;11.50;99.90
5118;DHT22;2578;51.622;7.046;2022-11-15T01:59:57;11.60;99.90
5118;DHT22;2578;51.622;7.046;2022-11-15T02:02:23;11.60;99.90
5118;DHT22;2578;51.622;7.046;2022-11-15T02:04:49;11.70;99.90
5118;DHT22;2578;51.622;7.046;2022-11-15T02:07:16;11.60;99.90
5118;DHT22;2578;51.622;7.046;2022-11-15T02:09:43;11.70;99.90
5118;DHT22;2578;51.622;7.046;2022-11-15T02:12:10;11.70;99.90
5118;DHT22;2578;51.622;7.046;2022-11-15T02:14:39;11.70;99.90
5118;DHT22;2578;51.622;7.046;2022-11-15T02:20:30;11.80;99.90
5118;DHT22;2578;51.622;7.046;2022-11-15T02:29:05;12.00;99.90
5118;DHT22;2578;51.622;7.046;2022-11-15T02:32:03;12.00;99.90
5118;DHT22;2578;51.622;7.046;2022-11-15T02:37:34;12.20;99.90
5118;DHT22;2578;51.622;7.046;2022-11-15T02:40:05;12.20;99.90
5118;DHT22;2578;51.622;7.046;2022-11-15T02:42:43;12.20;99.90
5118;DHT22;2578;51.622;7.046;2022-11-15T02:45:36;10.90;99.90
5118;DHT22;2578;51.622;7.046;2022-11-15T02:48:05;12.30;99.90
5118;DHT22;2578;51.622;7.046;2022-11-15T02:50:32;12.50;99.90
5118;DHT22;2578;51.622;7.046;2022-11-15T02:52:58;12.40;99.90
5118;DHT22;2578;51.622;7.046;2022-11-15T02:55:31;12.40;99.90
5118;DHT22;2578;51.622;7.046;2022-11-15T03:00:52;12.50;99.90
5118;DHT22;2578;51.622;7.046;2022-11-15T03:08:37;12.50;99.90
5118;DHT22;2578;51.622;7.046;2022-11-15T03:11:19;12.50;99.90
5118;DHT22;2578;51.622;7.046;2022-11-15T03:18:54;12.50;99.90
5118;DHT22;2578;51.622;7.046;2022-11-15T03:21:22;12.60;99.90
5118;DHT22;2578;51.622;7.046;2022-11-15T03:23:49;12.70;99.90
5118;DHT22;2578;51.622;7.046;2022-11-15T03:26:17;12.60;99.90
5118;DHT22;2578;51.622;7.046;2022-11-15T03:29:17;12.60;99.90
5118;DHT22;2578;51.622;7.046;2022-11-15T03:31:49;12.60;99.90
5118;DHT22;2578;51.622;7.046;2022-11-15T03:35:08;12.60;99.90
5118;DHT22;2578;51.622;7.046;2022-11-15T03:37:07;12.50;99.90
5118;DHT22;2578;51.622;7.046;2022-11-15T03:39:34;12.60;99.90
5118;DHT22;2578;51.622;7.046;2022-11-15T03:47:40;12.40;99.90
5118;DHT22;2578;51.622;7.046;2022-11-15T03:50:16;12.40;99.90
5118;DHT22;2578;51.622;7.046;2022-11-15T03:52:45;12.30;99.90
5118;DHT22;2578;51.622;7.046;2022-11-15T03:55:16;12.30;99.90
5118;DHT22;2578;51.622;7.046;2022-11-15T03:57:42;12.40;99.90
5118;DHT22;2578;51.622;7.046;2022-11-15T04:00:08;12.40;99.90
5118;DHT22;2578;51.622;7.046;2022-11-15T04:02:34;12.40;99.90
5118;DHT22;2578;51.622;7.046;2022-11-15T04:04:59;12.40;99.90
5118;DHT22;2578;51.622;7.046;2022-11-15T04:07:25;12.40;99.90
5118;DHT22;2578;51.622;7.046;2022-11-15T04:09:51;12.40;99.90
5118;DHT22;2578;51.622;7.046;2022-11-15T04:12:33;12.40;99.90
5118;DHT22;2578;51.622;7.046;2022-11-15T04:15:07;12.40;99.90
5118;DHT22;2578;51.622;7.046;2022-11-15T04:20:29;12.50;99.90
5118;DHT22;2578;51.622;7.046;2022-11-15T04:23:14;12.50;99.90
5118;DHT22;2578;51.622;7.046;2022-11-15T04:26:00;12.50;99.90
5118;DHT22;2578;51.622;7.046;2022-11-15T04:28:27;12.50;99.90
5118;DHT22;2578;51.622;7.046;2022-11-15T04:30:53;12.60;99.90
5118;DHT22;2578;51.622;7.046;2022-11-15T04:33:18;12.50;99.90
5118;DHT22;2578;51.622;7.046;2022-11-15T04:35:44;12.60;99.90
5118;DHT22;2578;51.622;7.046;2022-11-15T04:38:30;12.60;99.90
5118;DHT22;2578;51.622;7.046;2022-11-15T04:40:55;12.50;99.90
5118;DHT22;2578;51.622;7.046;2022-11-15T04:43:21;12.70;99.90
5118;DHT22;2578;51.622;7.046;2022-11-15T04:45:46;12.50;99.90
5118;DHT22;2578;51.622;7.046;2022-11-15T04:48:12;12.50;99.90
5118;DHT22;2578;51.622;7.046;2022-11-15T04:50:37;12.80;99.90
5118;DHT22;2578;51.622;7.046;2022-11-15T04:53:03;12.50;99.90
5118;DHT22;2578;51.622;7.046;2022-11-15T04:55:28;12.50;99.90
5118;DHT22;2578;51.622;7.046;2022-11-15T04:58:01;12.50;99.90
5118;DHT22;2578;51.622;7.046;2022-11-15T05:00:28;12.50;99.90
5118;DHT22;2578;51.622;7.046;2022-11-15T05:02:55;12.50;99.90
5118;DHT22;2578;51.622;7.046;2022-11-15T05:05:39;12.60;99.90
5118;DHT22;2578;51.622;7.046;2022-11-15T05:08:05;12.60;99.90
5118;DHT22;2578;51.622;7.046;2022-11-15T05:10:31;12.60;99.90
5118;DHT22;2578;51.622;7.046;2022-11-15T05:12:56;12.70;99.90
5118;DHT22;2578;51.622;7.046;2022-11-15T05:15:22;12.70;99.90
5118;DHT22;2578;51.622;7.046;2022-11-15T05:17:47;12.70;99.90
5118;DHT22;2578;51.622;7.046;2022-11-15T05:20:13;12.70;99.90
5118;DHT22;2578;51.622;7.046;2022-11-15T05:22:39;12.70;99.90
5118;DHT22;2578;51.622;7.046;2022-11-15T05:25:05;12.70;99.90
5118;DHT22;2578;51.622;7.046;2022-11-15T05:27:32;12.70;99.90
5118;DHT22;2578;51.622;7.046;2022-11-15T05:29:57;12.70;99.90
5118;DHT22;2578;51.622;7.046;2022-11-15T05:32:23;12.70;99.90
5118;DHT22;2578;51.622;7.046;2022-11-15T05:34:49;13.30;99.90
5118;DHT22;2578;51.622;7.046;2022-11-15T05:37:16;12.70;99.90
5118;DHT22;2578;51.622;7.046;2022-11-15T05:39:42;12.70;99.90
5118;DHT22;2578;51.622;7.046;2022-11-15T05:42:09;12.70;99.90
5118;DHT22;2578;51.622;7.046;2022-11-15T05:44:36;12.80;99.90
5118;DHT22;2578;51.622;7.046;2022-11-15T05:47:03;12.80;99.90
5118;DHT22;2578;51.622;7.046;2022-11-15T05:49:33;12.80;99.90
5118;DHT22;2578;51.622;7.046;2022-11-15T05:52:03;12.70;99.90
5118;DHT22;2578;51.622;7.046;2022-11-15T05:54:31;12.70;99.90
5118;DHT22;2578;51.622;7.046;2022-11-15T05:56:57;12.70;99.90
5118;DHT22;2578;51.622;7.046;2022-11-15T05:59:23;12.70;99.90
5118;DHT22;2578;51.622;7.046;2022-11-15T06:01:49;12.80;99.90
5118;DHT22;2578;51.622;7.046;2022-11-15T06:04:15;12.60;99.90
5118;DHT22;2578;51.622;7.046;2022-11-15T06:06:40;12.50;99.90
5118;DHT22;2578;51.622;7.046;2022-11-15T06:09:06;12.50;99.90
5118;DHT22;2578;51.622;7.046;2022-11-15T06:11:31;12.50;99.90
5118;DHT22;2578;51.622;7.046;2022-11-15T06:13:57;12.50;99.90
5118;DHT22;2578;51.622;7.046;2022-11-15T06:16:22;12.40;99.90
5118;DHT22;2578;51.622;7.046;2022-11-15T06:18:48;12.30;1.00
5118;DHT22;2578;51.622;7.046;2022-11-15T06:21:14;12.30;29.90
5118;DHT22;2578;51.622;7.046;2022-11-15T06:23:39;12.20;99.90
5118;DHT22;2578;51.622;7.046;2022-11-15T06:26:05;12.20;1.00
5118;DHT22;2578;51.622;7.046;2022-11-15T06:28:32;12.20;45.20
5118;DHT22;2578;51.622;7.046;2022-11-15T06:31:05;12.10;97.50
5118;DHT22;2578;51.622;7.046;2022-11-15T06:33:31;12.10;99.90
5118;DHT22;2578;51.622;7.046;2022-11-15T06:36:02;12.10;1.00
5118;DHT22;2578;51.622;7.046;2022-11-15T06:38:28;12.10;99.90
5118;DHT22;2578;51.622;7.046;2022-11-15T06:40:53;12.10;99.90
5118;DHT22;2578;51.622;7.046;2022-11-15T06:43:19;12.20;99.90
5118;DHT22;2578;51.622;7.046;2022-11-15T06:45:44;12.30;99.90
5118;DHT22;2578;51.622;7.046;2022-11-15T06:48:10;12.30;99.90
5118;DHT22;2578;51.622;7.046;2022-11-15T06:50:36;12.30;99.90
5118;DHT22;2578;51.622;7.046;2022-11-15T06:53:03;12.30;99.90
5118;DHT22;2578;51.622;7.046;2022-11-15T06:55:29;12.50;99.90
5118;DHT22;2578;51.622;7.046;2022-11-15T06:57:55;12.40;99.90
5118;DHT22;2578;51.622;7.046;2022-11-15T07:00:21;12.40;99.90
5118;DHT22;2578;51.622;7.046;2022-11-15T07:02:48;12.40;99.90
5118;DHT22;2578;51.622;7.046;2022-11-15T07:05:15;12.40;99.90
5118;DHT22;2578;51.622;7.046;2022-11-15T07:07:41;12.40;99.90
5118;DHT22;2578;51.622;7.046;2022-11-15T07:10:08;12.40;99.90
5118;DHT22;2578;51.622;7.046;2022-11-15T07:12:34;12.40;99.90
5118;DHT22;2578;51.622;7.046;2022-11-15T07:14:59;12.50;99.90
5118;DHT22;2578;51.622;7.046;2022-11-15T07:17:25;12.60;99.90
5118;DHT22;2578;51.622;7.046;2022-11-15T07:19:51;12.60;99.90
5118;DHT22;2578;51.622;7.046;2022-11-15T07:22:16;12.60;99.90
5118;DHT22;2578;51.622;7.046;2022-11-15T07:24:42;13.00;99.90
5118;DHT22;2578;51.622;7.046;2022-11-15T07:27:07;12.70;99.90
5118;DHT22;2578;51.622;7.046;2022-11-15T07:29:33;12.70;99.90
5118;DHT22;2578;51.622;7.046;2022-11-15T07:31:58;12.70;99.90
5118;DHT22;2578;51.622;7.046;2022-11-15T07:34:24;12.70;99.90
5118;DHT22;2578;51.622;7.046;2022-11-15T07:36:50;12.70;99.90
5118;DHT22;2578;51.622;7.046;2022-11-15T07:39:15;12.60;99.90
5118;DHT22;2578;51.622;7.046;2022-11-15T07:41:41;12.60;99.90
5118;DHT22;2578;51.622;7.046;2022-11-15T07:44:08;12.60;99.90
5118;DHT22;2578;51.622;7.046;2022-11-15T07:46:34;12.60;99.90
5118;DHT22;2578;51.622;7.046;2022-11-15T07:49:00;12.60;99.90
5118;DHT22;2578;51.622;7.046;2022-11-15T07:51:25;12.70;99.90
5118;DHT22;2578;51.622;7.046;2022-11-15T07:53:51;12.70;99.90
5118;DHT22;2578;51.622;7.046;2022-11-15T07:56:16;12.70;99.90
5118;DHT22;2578;51.622;7.046;2022-11-15T07:58:42;12.80;99.90
5118;DHT22;2578;51.622;7.046;2022-11-15T08:01:09;12.80;99.90
5118;DHT22;2578;51.622;7.046;2022-11-15T08:03:35;12.80;99.90
5118;DHT22;2578;51.622;7.046;2022-11-15T08:06:02;12.90;99.90
5118;DHT22;2578;51.622;7.046;2022-11-15T08:08:27;13.00;99.90
5118;DHT22;2578;51.622;7.046;2022-11-15T08:10:53;13.40;99.90
5118;DHT22;2578;51.622;7.046;2022-11-15T08:13:19;13.10;99.90
5118;DHT22;2578;51.622;7.046;2022-11-15T08:15:45;13.20;99.90
5118;DHT22;2578;51.622;7.046;2022-11-15T08:18:13;13.30;99.90
5118;DHT22;2578;51.622;7.046;2022-11-15T08:20:39;13.40;99.90
5118;DHT22;2578;51.622;7.046;2022-11-15T08:23:05;13.40;99.90
5118;DHT22;2578;51.622;7.046;2022-11-15T08:25:33;13.50;99.90
5118;DHT22;2578;51.622;7.046;2022-11-15T08:28:02;13.60;99.90
5118;DHT22;2578;51.622;7.046;2022-11-15T08:30:28;13.60;99.90
5118;DHT22;2578;51.622;7.046;2022-11-15T08:32:57;13.70;99.90
5118;DHT22;2578;51.622;7.046;2022-11-15T08:38:38;13.70;99.90
5118;DHT22;2578;51.622;7.046;2022-11-15T08:41:44;13.80;99.90
5118;DHT22;2578;51.622;7.046;2022-11-15T08:44:34;13.80;99.90
5118;DHT22;2578;51.622;7.046;2022-11-15T08:47:05;13.10;99.90
5118;DHT22;2578;51.622;7.046;2022-11-15T08:49:46;13.00;99.90
5118;DHT22;2578;51.622;7.046;2022-11-15T08:52:34;12.70;99.90
5118;DHT22;2578;51.622;7.046;2022-11-15T08:55:31;12.40;99.90
5118;DHT22;2578;51.622;7.046;2022-11-15T08:57:58;12.10;99.90
5118;DHT22;2578;51.622;7.046;2022-11-15T09:00:24;12.10;99.90
5118;DHT22;2578;51.622;7.046;2022-11-15T09:02:49;12.10;99.90
5118;DHT22;2578;51.622;7.046;2022-11-15T09:05:15;12.20;99.90
5118;DHT22;2578;51.622;7.046;2022-11-15T09:07:44;12.10;99.90
5118;DHT22;2578;51.622;7.046;2022-11-15T09:10:09;12.10;99.90
5118;DHT22;2578;51.622;7.046;2022-11-15T09:12:35;12.20;99.90
5118;DHT22;2578;51.622;7.046;2022-11-15T09:15:01;12.20;99.90
5118;DHT22;2578;51.622;7.046;2022-11-15T09:17:26;12.30;99.90
5118;DHT22;2578;51.622;7.046;2022-11-15T09:19:52;12.40;99.90
5118;DHT22;2578;51.622;7.046;2022-11-15T09:22:17;12.50;99.90
5118;DHT22;2578;51.622;7.046;2022-11-15T09:24:43;12.40;99.90
5118;DHT22;2578;51.622;7.046;2022-11-15T09:27:08;12.60;99.90
5118;DHT22;2578;51.622;7.046;2022-11-15T09:29:34;12.60;99.90
5118;DHT22;2578;51.622;7.046;2022-11-15T09:32:00;12.60;99.90
5118;DHT22;2578;51.622;7.046;2022-11-15T09:34:25;12.60;99.90
5118;DHT22;2578;51.622;7.046;2022-11-15T09:36:51;12.70;99.90
5118;DHT22;2578;51.622;7.046;2022-11-15T09:39:17;12.80;99.90
5118;DHT22;2578;51.622;7.046;2022-11-15T09:41:51;12.80;99.90
5118;DHT22;2578;51.622;7.046;2022-11-15T09:49:58;13.20;99.90
5118;DHT22;2578;51.622;7.046;2022-11-15T09:52:24;13.50;99.90
5118;DHT22;2578;51.622;7.046;2022-11-15T09:54:51;13.70;99.90
5118;DHT22;2578;51.622;7.046;2022-11-15T09:57:21;14.30;99.90
5118;DHT22;2578;51.622;7.046;2022-11-15T10:05:22;15.30;99.90
5118;DHT22;2578;51.622;7.046;2022-11-15T10:08:04;15.90;99.90
5118;DHT22;2578;51.622;7.046;2022-11-15T10:12:57;16.40;99.90
5118;DHT22;2578;51.622;7.046;2022-11-15T10:15:23;16.90;99.90
5118;DHT22;2578;51.622;7.046;2022-11-15T10:20:32;16.40;88.80
5118;DHT22;2578;51.622;7.046;2022-11-15T10:23:05;16.30;97.90
5118;DHT22;2578;51.622;7.046;2022-11-15T10:25:33;16.70;96.70
5118;DHT22;2578;51.622;7.046;2022-11-15T10:28:03;16.10;76.90
5118;DHT22;2578;51.622;7.046;2022-11-15T10:30:41;16.10;90.20
5118;DHT22;2578;51.622;7.046;2022-11-15T10:36:21;15.40;99.90
5118;DHT22;2578;51.622;7.046;2022-11-15T10:46:31;16.00;99.90
5118;DHT22;2578;51.622;7.046;2022-11-15T10:56:58;18.20;94.10
5118;DHT22;2578;51.622;7.046;2022-11-15T10:59:28;15.90;93.00
5118;DHT22;2578;51.622;7.046;2022-11-15T11:01:54;16.00;76.60
5118;DHT22;2578;51.622;7.046;2022-11-15T11:04:20;16.30;61.10
5118;DHT22;2578;51.622;7.046;2022-11-15T11:06:50;16.70;31.30
5118;DHT22;2578;51.622;7.046;2022-11-15T11:09:35;16.70;28.20
5118;DHT22;2578;51.622;7.046;2022-11-15T11:12:02;16.90;20.00
5118;DHT22;2578;51.622;7.046;2022-11-15T11:14:31;17.60;12.20
5118;DHT22;2578;51.622;7.046;2022-11-15T11:25:21;18.10;3.70
5118;DHT22;2578;51.622;7.046;2022-11-15T11:30:53;18.90;1.00
5118;DHT22;2578;51.622;7.046;2022-11-15T11:36:19;18.10;1.00
5118;DHT22;2578;51.622;7.046;2022-11-15T11:47:00;19.00;1.00
5118;DHT22;2578;51.622;7.046;2022-11-15T11:52:10;18.90;1.00
5118;DHT22;2578;51.622;7.046;2022-11-15T11:54:54;19.30;1.00
5118;DHT22;2578;51.622;7.046;2022-11-15T11:58:00;19.60;1.00
5118;DHT22;2578;51.622;7.046;2022-11-15T12:00:28;19.50;1.00
5118;DHT22;2578;51.622;7.046;2022-11-15T12:03:12;18.80;1.00
5118;DHT22;2578;51.622;7.046;2022-11-15T12:05:49;18.40;1.00
5118;DHT22;2578;51.622;7.046;2022-11-15T12:13:43;18.30;1.00
5118;DHT22;2578;51.622;7.046;2022-11-15T12:18:46;18.30;1.00
5118;DHT22;2578;51.622;7.046;2022-11-15T12:21:22;18.60;1.00
5118;DHT22;2578;51.622;7.046;2022-11-15T12:23:54;18.40;1.00
5118;DHT22;2578;51.622;7.046;2022-11-15T12:26:27;18.70;1.00
5118;DHT22;2578;51.622;7.046;2022-11-15T12:28:58;18.50;1.00
5118;DHT22;2578;51.622;7.046;2022-11-15T12:31:51;18.40;1.00
5118;DHT22;2578;51.622;7.046;2022-11-15T12:36:48;17.10;1.00
5118;DHT22;2578;51.622;7.046;2022-11-15T12:39:14;17.10;1.00
5118;DHT22;2578;51.622;7.046;2022-11-15T12:59:50;17.30;1.00
5118;DHT22;2578;51.622;7.046;2022-11-15T13:02:19;16.90;1.00
5118;DHT22;2578;51.622;7.046;2022-11-15T13:04:46;16.70;1.00
5118;DHT22;2578;51.622;7.046;2022-11-15T13:10:01;16.80;1.00
5118;DHT22;2578;51.622;7.046;2022-11-15T13:17:51;16.60;1.00
5118;DHT22;2578;51.622;7.046;2022-11-15T13:30:41;16.30;1.00
5118;DHT22;2578;51.622;7.046;2022-11-15T13:33:19;16.40;1.00
5118;DHT22;2578;51.622;7.046;2022-11-15T13:35:48;16.10;1.00
5118;DHT22;2578;51.622;7.046;2022-11-15T13:38:36;16.00;1.00
5118;DHT22;2578;51.622;7.046;2022-11-15T13:41:20;15.80;1.00
5118;DHT22;2578;51.622;7.046;2022-11-15T13:43:47;15.80;1.00
5118;DHT22;2578;51.622;7.046;2022-11-15T13:48:42;14.90;1.00
5118;DHT22;2578;51.622;7.046;2022-11-15T13:53:50;14.50;5.70
5118;DHT22;2578;51.622;7.046;2022-11-15T13:56:18;14.40;14.00
5118;DHT22;2578;51.622;7.046;2022-11-15T13:58:45;14.30;25.20
5118;DHT22;2578;51.622;7.046;2022-11-15T14:01:16;14.20;24.70
5118;DHT22;2578;51.622;7.046;2022-11-15T14:03:58;14.20;41.50
5118;DHT22;2578;51.622;7.046;2022-11-15T14:06:26;14.20;43.10
5118;DHT22;2578;51.622;7.046;2022-11-15T14:11:36;14.30;48.10
5118;DHT22;2578;51.622;7.046;2022-11-15T14:16:38;14.20;49.50
5118;DHT22;2578;51.622;7.046;2022-11-15T14:19:05;14.20;57.20
5118;DHT22;2578;51.622;7.046;2022-11-15T14:21:32;14.10;71.20
5118;DHT22;2578;51.622;7.046;2022-11-15T14:24:33;14.00;74.30
5118;DHT22;2578;51.622;7.046;2022-11-15T14:27:24;13.80;91.80
5118;DHT22;2578;51.622;7.046;2022-11-15T14:29:49;13.90;90.50
5118;DHT22;2578;51.622;7.046;2022-11-15T14:34:45;14.00;93.70
5118;DHT22;2578;51.622;7.046;2022-11-15T14:37:25;13.90;95.80
5118;DHT22;2578;51.622;7.046;2022-11-15T14:39:52;13.90;96.50
5118;DHT22;2578;51.622;7.046;2022-11-15T14:42:18;13.90;97.50
5118;DHT22;2578;51.622;7.046;2022-11-15T14:44:44;13.90;97.40
5118;DHT22;2578;51.622;7.046;2022-11-15T14:47:10;13.90;99.90
5118;DHT22;2578;51.622;7.046;2022-11-15T14:49:35;15.10;99.90
5118;DHT22;2578;51.622;7.046;2022-11-15T14:52:01;13.90;99.90
5118;DHT22;2578;51.622;7.046;2022-11-15T14:54:27;13.90;99.90
5118;DHT22;2578;51.622;7.046;2022-11-15T14:56:52;13.80;99.90
5118;DHT22;2578;51.622;7.046;2022-11-15T14:59:18;13.80;99.90
5118;DHT22;2578;51.622;7.046;2022-11-15T15:01:44;13.90;99.90
5118;DHT22;2578;51.622;7.046;2022-11-15T15:04:10;13.80;99.90
5118;DHT22;2578;51.622;7.046;2022-11-15T15:06:36;13.80;99.90
5118;DHT22;2578;51.622;7.046;2022-11-15T15:09:02;13.70;99.90
5118;DHT22;2578;51.622;7.046;2022-11-15T15:11:30;13.60;99.90
5118;DHT22;2578;51.622;7.046;2022-11-15T15:13:57;13.60;99.90
5118;DHT22;2578;51.622;7.046;2022-11-15T15:16:26;13.50;99.90
5118;DHT22;2578;51.622;7.046;2022-11-15T15:18:52;13.40;99.90
5118;DHT22;2578;51.622;7.046;2022-11-15T15:21:25;13.40;99.90
5118;DHT22;2578;51.622;7.046;2022-11-15T15:23:53;13.30;99.90
5118;DHT22;2578;51.622;7.046;2022-11-15T15:26:25;13.30;99.90
5118;DHT22;2578;51.622;7.046;2022-11-15T15:28:51;13.20;99.90
5118;DHT22;2578;51.622;7.046;2022-11-15T15:31:17;13.10;99.90
5118;DHT22;2578;51.622;7.046;2022-11-15T15:33:43;13.10;99.90
5118;DHT22;2578;51.622;7.046;2022-11-15T15:36:11;13.30;99.90
5118;DHT22;2578;51.622;7.046;2022-11-15T15:38:38;13.10;99.90
5118;DHT22;2578;51.622;7.046;2022-11-15T15:41:12;13.10;99.90
5118;DHT22;2578;51.622;7.046;2022-11-15T15:43:38;13.10;99.90
5118;DHT22;2578;51.622;7.046;2022-11-15T15:46:07;13.20;99.90
5118;DHT22;2578;51.622;7.046;2022-11-15T15:48:33;13.20;99.90
5118;DHT22;2578;51.622;7.046;2022-11-15T15:51:02;13.20;99.90
5118;DHT22;2578;51.622;7.046;2022-11-15T15:53:28;13.20;99.90
5118;DHT22;2578;51.622;7.046;2022-11-15T15:55:54;13.40;99.90
5118;DHT22;2578;51.622;7.046;2022-11-15T15:58:19;13.20;99.90
5118;DHT22;2578;51.622;7.046;2022-11-15T16:00:45;13.20;99.90
5118;DHT22;2578;51.622;7.046;2022-11-15T16:03:11;13.30;99.90
5118;DHT22;2578;51.622;7.046;2022-11-15T16:05:36;13.20;99.90
5118;DHT22;2578;51.622;7.046;2022-11-15T16:08:02;13.20;99.90
5118;DHT22;2578;51.622;7.046;2022-11-15T16:10:31;13.10;99.90
5118;DHT22;2578;51.622;7.046;2022-11-15T16:12:57;13.30;99.90
5118;DHT22;2578;51.622;7.046;2022-11-15T16:15:26;13.10;99.90
5118;DHT22;2578;51.622;7.046;2022-11-15T16:18:00;13.10;99.90
5118;DHT22;2578;51.622;7.046;2022-11-15T16:23:04;13.10;99.90
5118;DHT22;2578;51.622;7.046;2022-11-15T16:25:53;13.30;99.90
5118;DHT22;2578;51.622;7.046;2022-11-15T16:28:19;13.10;99.90
5118;DHT22;2578;51.622;7.046;2022-11-15T16:30:45;13.10;99.90
5118;DHT22;2578;51.622;7.046;2022-11-15T16:33:11;13.10;99.90
5118;DHT22;2578;51.622;7.046;2022-11-15T16:35:36;13.10;99.90
5118;DHT22;2578;51.622;7.046;2022-11-15T16:38:02;13.10;99.90
5118;DHT22;2578;51.622;7.046;2022-11-15T16:40:31;13.10;99.90
5118;DHT22;2578;51.622;7.046;2022-11-15T16:42:58;13.00;99.90
5118;DHT22;2578;51.622;7.046;2022-11-15T16:45:25;13.00;99.90
5118;DHT22;2578;51.622;7.046;2022-11-15T16:47:52;13.10;99.90
5118;DHT22;2578;51.622;7.046;2022-11-15T16:50:23;13.10;99.90
5118;DHT22;2578;51.622;7.046;2022-11-15T16:52:55;13.00;99.90
5118;DHT22;2578;51.622;7.046;2022-11-15T16:55:23;13.00;99.90
5118;DHT22;2578;51.622;7.046;2022-11-15T16:57:49;13.10;99.90
5118;DHT22;2578;51.622;7.046;2022-11-15T17:00:16;13.10;99.90
5118;DHT22;2578;51.622;7.046;2022-11-15T17:02:44;13.10;99.90
5118;DHT22;2578;51.622;7.046;2022-11-15T17:05:10;13.10;99.90
5118;DHT22;2578;51.622;7.046;2022-11-15T17:07:35;13.10;99.90
5118;DHT22;2578;51.622;7.046;2022-11-15T17:10:01;13.10;99.90
5118;DHT22;2578;51.622;7.046;2022-11-15T17:12:26;13.10;99.90
5118;DHT22;2578;51.622;7.046;2022-11-15T17:14:52;13.10;99.90
5118;DHT22;2578;51.622;7.046;2022-11-15T17:17:18;13.10;99.90
5118;DHT22;2578;51.622;7.046;2022-11-15T17:19:44;13.10;99.90
5118;DHT22;2578;51.622;7.046;2022-11-15T17:22:09;13.10;99.90
5118;DHT22;2578;51.622;7.046;2022-11-15T17:24:35;13.10;99.90
5118;DHT22;2578;51.622;7.046;2022-11-15T17:27:00;13.10;99.90
5118;DHT22;2578;51.622;7.046;2022-11-15T17:29:26;13.10;99.90
5118;DHT22;2578;51.622;7.046;2022-11-15T17:31:52;13.10;99.90
5118;DHT22;2578;51.622;7.046;2022-11-15T17:34:17;13.20;99.90
5118;DHT22;2578;51.622;7.046;2022-11-15T17:36:43;13.10;99.90
5118;DHT22;2578;51.622;7.046;2022-11-15T17:39:08;13.30;99.90
5118;DHT22;2578;51.622;7.046;2022-11-15T17:41:34;13.20;99.90
5118;DHT22;2578;51.622;7.046;2022-11-15T17:44:00;13.20;99.90
5118;DHT22;2578;51.622;7.046;2022-11-15T17:46:28;13.20;99.90
5118;DHT22;2578;51.622;7.046;2022-11-15T17:48:55;13.20;99.90
5118;DHT22;2578;51.622;7.046;2022-11-15T17:51:20;13.10;99.90
5118;DHT22;2578;51.622;7.046;2022-11-15T17:53:48;13.20;99.90
5118;DHT22;2578;51.622;7.046;2022-11-15T17:56:20;13.10;99.90
5118;DHT22;2578;51.622;7.046;2022-11-15T17:58:50;13.10;99.90
5118;DHT22;2578;51.622;7.046;2022-11-15T18:01:29;13.10;99.90
5118;DHT22;2578;51.622;7.046;2022-11-15T18:03:56;13.10;99.90
5118;DHT22;2578;51.622;7.046;2022-11-15T18:06:25;13.10;99.90
5118;DHT22;2578;51.622;7.046;2022-11-15T18:08:52;13.10;99.90
5118;DHT22;2578;51.622;7.046;2022-11-15T18:11:26;13.10;99.90
5118;DHT22;2578;51.622;7.046;2022-11-15T18:13:55;13.10;99.90
5118;DHT22;2578;51.622;7.046;2022-11-15T18:16:23;13.10;99.90
5118;DHT22;2578;51.622;7.046;2022-11-15T18:18:50;13.20;99.90
5118;DHT22;2578;51.622;7.046;2022-11-15T18:21:21;13.20;99.90
5118;DHT22;2578;51.622;7.046;2022-11-15T18:23:48;13.20;99.90
5118;DHT22;2578;51.622;7.046;2022-11-15T18:26:16;13.20;99.90
5118;DHT22;2578;51.622;7.046;2022-11-15T18:28:44;13.30;99.90
5118;DHT22;2578;51.622;7.046;2022-11-15T18:31:24;13.30;99.90
5118;DHT22;2578;51.622;7.046;2022-11-15T18:33:51;13.30;99.90
5118;DHT22;2578;51.622;7.046;2022-11-15T18:36:22;13.30;99.90
5118;DHT22;2578;51.622;7.046;2022-11-15T18:38:54;13.40;99.90
5118;DHT22;2578;51.622;7.046;2022-11-15T18:41:20;13.40;99.90
5118;DHT22;2578;51.622;7.046;2022-11-15T18:43:49;13.50;99.90
5118;DHT22;2578;51.622;7.046;2022-11-15T18:46:18;13.60;99.90
5118;DHT22;2578;51.622;7.046;2022-11-15T18:48:45;13.60;99.90
5118;DHT22;2578;51.622;7.046;2022-11-15T18:51:12;13.60;99.90
5118;DHT22;2578;51.622;7.046;2022-11-15T18:53:39;13.70;99.90
5118;DHT22;2578;51.622;7.046;2022-11-15T18:56:07;13.70;99.90